sensor_id;sensor_type;location;lat;lon;timestamp;pressure;altitude;pressure_sealevel;temperature;humidity
4469;BME280;2247;42.666;23.292;2023-11-19T00:00:07;94322.91;;;7.97;53.60
4469;BME280;2247;42.666;23.292;2023-11-19T00:02:37;94334.44;;;7.96;53.49
4469;BME280;2247;42.666;23.292;2023-11-19T00:05:04;94325.50;;;7.92;53.69
4469;BME280;2247;42.666;23.292;2023-11-19T00:07:34;94325.75;;;7.96;53.65
4469;BME280;2247;42.666;23.292;2023-11-19T00:10:01;94315.00;;;7.92;53.85
4469;BME280;2247;42.666;23.292;2023-11-19T00:12:37;94320.25;;;7.92;53.43
4469;BME280;2247;42.666;23.292;2023-11-19T00:15:06;94315.28;;;7.96;53.40
4469;BME280;2247;42.666;23.292;2023-11-19T00:17:36;94313.19;;;7.98;53.50
4469;BME280;2247;42.666;23.292;2023-11-19T00:20:05;94322.09;;;7.91;53.45
4469;BME280;2247;42.666;23.292;2023-11-19T00:22:33;94323.13;;;7.90;53.46
4469;BME280;2247;42.666;23.292;2023-11-19T00:24:59;94309.19;;;7.80;53.44
4469;BME280;2247;42.666;23.292;2023-11-19T00:27:27;94314.19;;;7.86;53.54
4469;BME280;2247;42.666;23.292;2023-11-19T00:29:55;94319.97;;;7.88;53.54
4469;BME280;2247;42.666;23.292;2023-11-19T00:32:22;94321.81;;;7.88;53.48
4469;BME280;2247;42.666;23.292;2023-11-19T00:34:49;94320.50;;;7.90;53.51
4469;BME280;2247;42.666;23.292;2023-11-19T00:37:16;94330.75;;;7.97;53.28
4469;BME280;2247;42.666;23.292;2023-11-19T00:39:43;94330.28;;;8.00;53.06
4469;BME280;2247;42.666;23.292;2023-11-19T00:42:11;94337.03;;;7.91;53.39
4469;BME280;2247;42.666;23.292;2023-11-19T00:44:39;94332.34;;;7.98;53.30
4469;BME280;2247;42.666;23.292;2023-11-19T00:47:08;94305.56;;;7.91;53.22
4469;BME280;2247;42.666;23.292;2023-11-19T00:49:35;94331.88;;;8.11;53.11
4469;BME280;2247;42.666;23.292;2023-11-19T00:52:02;94324.03;;;8.16;52.94
4469;BME280;2247;42.666;23.292;2023-11-19T00:54:29;94320.31;;;8.07;52.97
4469;BME280;2247;42.666;23.292;2023-11-19T00:56:56;94331.31;;;8.04;53.11
4469;BME280;2247;42.666;23.292;2023-11-19T00:59:22;94329.75;;;8.03;53.24
4469;BME280;2247;42.666;23.292;2023-11-19T01:01:50;94326.59;;;8.01;53.37
4469;BME280;2247;42.666;23.292;2023-11-19T01:04:18;94322.66;;;8.04;53.07
4469;BME280;2247;42.666;23.292;2023-11-19T01:06:45;94331.31;;;8.04;53.28
4469;BME280;2247;42.666;23.292;2023-11-19T01:09:12;94330.81;;;8.07;53.05
4469;BME280;2247;42.666;23.292;2023-11-19T01:11:40;94333.94;;;8.04;52.90
4469;BME280;2247;42.666;23.292;2023-11-19T01:14:07;94336.78;;;7.93;53.52
4469;BME280;2247;42.666;23.292;2023-11-19T01:16:34;94325.50;;;7.87;53.57
4469;BME280;2247;42.666;23.292;2023-11-19T01:19:00;94332.56;;;7.86;53.58
4469;BME280;2247;42.666;23.292;2023-11-19T01:21:31;94340.69;;;7.90;53.30
4469;BME280;2247;42.666;23.292;2023-11-19T01:23:58;94337.56;;;7.88;53.45
4469;BME280;2247;42.666;23.292;2023-11-19T01:26:25;94340.69;;;7.85;53.65
4469;BME280;2247;42.666;23.292;2023-11-19T01:28:52;94342.03;;;7.87;53.52
4469;BME280;2247;42.666;23.292;2023-11-19T01:31:19;94349.59;;;7.89;53.71
4469;BME280;2247;42.666;23.292;2023-11-19T01:33:46;94335.44;;;7.85;53.67
4469;BME280;2247;42.666;23.292;2023-11-19T01:36:13;94329.78;;;7.61;53.35
4469;BME280;2247;42.666;23.292;2023-11-19T01:38:41;94357.69;;;7.77;53.46
4469;BME280;2247;42.666;23.292;2023-11-19T01:41:08;94372.13;;;7.80;53.39
4469;BME280;2247;42.666;23.292;2023-11-19T01:43:36;94363.72;;;7.78;53.14
4469;BME280;2247;42.666;23.292;2023-11-19T01:46:05;94366.59;;;7.76;53.05
4469;BME280;2247;42.666;23.292;2023-11-19T01:48:34;94342.19;;;7.71;52.97
4469;BME280;2247;42.666;23.292;2023-11-19T01:51:01;94364.16;;;7.65;53.42
4469;BME280;2247;42.666;23.292;2023-11-19T01:53:30;94348.88;;;7.51;53.08
4469;BME280;2247;42.666;23.292;2023-11-19T01:55:59;94364.84;;;7.50;53.55
4469;BME280;2247;42.666;23.292;2023-11-19T01:58:27;94368.25;;;7.45;53.57
4469;BME280;2247;42.666;23.292;2023-11-19T02:00:56;94351.97;;;7.43;53.65
4469;BME280;2247;42.666;23.292;2023-11-19T02:03:24;94364.28;;;7.43;53.86
4469;BME280;2247;42.666;23.292;2023-11-19T02:05:52;94358.25;;;7.42;53.59
4469;BME280;2247;42.666;23.292;2023-11-19T02:08:19;94348.78;;;7.41;53.71
4469;BME280;2247;42.666;23.292;2023-11-19T02:10:46;94345.97;;;7.48;53.24
4469;BME280;2247;42.666;23.292;2023-11-19T02:13:14;94336.47;;;7.42;53.33
4469;BME280;2247;42.666;23.292;2023-11-19T02:15:41;94339.66;;;7.44;53.42
4469;BME280;2247;42.666;23.292;2023-11-19T02:18:22;94350.41;;;7.47;53.45
4469;BME280;2247;42.666;23.292;2023-11-19T02:20:53;94341.00;;;7.51;53.13
4469;BME280;2247;42.666;23.292;2023-11-19T02:23:21;94338.41;;;7.57;53.01
4469;BME280;2247;42.666;23.292;2023-11-19T02:25:57;94338.44;;;7.62;52.65
4469;BME280;2247;42.666;23.292;2023-11-19T02:28:27;94340.53;;;7.60;52.79
4469;BME280;2247;42.666;23.292;2023-11-19T02:30:54;94332.41;;;7.61;52.48
4469;BME280;2247;42.666;23.292;2023-11-19T02:33:21;94334.78;;;7.63;52.55
4469;BME280;2247;42.666;23.292;2023-11-19T02:35:48;94344.53;;;7.67;52.65
4469;BME280;2247;42.666;23.292;2023-11-19T02:38:15;94346.13;;;7.73;52.31
4469;BME280;2247;42.666;23.292;2023-11-19T02:40:42;94340.03;;;7.63;52.52
4469;BME280;2247;42.666;23.292;2023-11-19T02:43:09;94343.47;;;7.68;52.62
4469;BME280;2247;42.666;23.292;2023-11-19T02:45:37;94335.38;;;7.75;52.14
4469;BME280;2247;42.666;23.292;2023-11-19T02:48:04;94344.25;;;7.69;52.30
4469;BME280;2247;42.666;23.292;2023-11-19T02:50:32;94349.50;;;7.69;52.36
4469;BME280;2247;42.666;23.292;2023-11-19T02:52:59;94348.69;;;7.68;52.06
4469;BME280;2247;42.666;23.292;2023-11-19T02:55:26;94343.75;;;7.67;52.25
4469;BME280;2247;42.666;23.292;2023-11-19T02:57:56;94336.13;;;7.65;52.40
4469;BME280;2247;42.666;23.292;2023-11-19T03:00:24;94326.91;;;7.63;52.42
4469;BME280;2247;42.666;23.292;2023-11-19T03:03:00;94339.22;;;7.62;52.31
4469;BME280;2247;42.666;23.292;2023-11-19T03:05:43;94345.78;;;7.60;52.35
4469;BME280;2247;42.666;23.292;2023-11-19T03:08:10;94341.81;;;7.52;52.21
4469;BME280;2247;42.666;23.292;2023-11-19T03:10:37;94351.16;;;7.43;52.38
4469;BME280;2247;42.666;23.292;2023-11-19T03:13:04;94355.22;;;7.24;53.02
4469;BME280;2247;42.666;23.292;2023-11-19T03:15:33;94357.03;;;7.18;53.39
4469;BME280;2247;42.666;23.292;2023-11-19T03:18:01;94359.66;;;7.18;53.49
4469;BME280;2247;42.666;23.292;2023-11-19T03:20:28;94352.25;;;7.10;53.57
4469;BME280;2247;42.666;23.292;2023-11-19T03:22:55;94346.97;;;7.05;53.66
4469;BME280;2247;42.666;23.292;2023-11-19T03:25:25;94352.28;;;7.15;53.50
4469;BME280;2247;42.666;23.292;2023-11-19T03:27:52;94352.81;;;7.17;53.60
4469;BME280;2247;42.666;23.292;2023-11-19T03:30:19;94348.94;;;7.25;53.52
4469;BME280;2247;42.666;23.292;2023-11-19T03:32:46;94361.53;;;7.28;53.31
4469;BME280;2247;42.666;23.292;2023-11-19T03:35:14;94350.03;;;7.29;53.33
4469;BME280;2247;42.666;23.292;2023-11-19T03:37:41;94344.81;;;7.34;53.28
4469;BME280;2247;42.666;23.292;2023-11-19T03:40:09;94352.19;;;7.37;53.06
4469;BME280;2247;42.666;23.292;2023-11-19T03:42:36;94354.50;;;7.33;53.23
4469;BME280;2247;42.666;23.292;2023-11-19T03:45:05;94357.13;;;7.33;53.12
4469;BME280;2247;42.666;23.292;2023-11-19T03:47:34;94363.91;;;7.29;53.01
4469;BME280;2247;42.666;23.292;2023-11-19T03:50:01;94368.91;;;7.31;53.21
4469;BME280;2247;42.666;23.292;2023-11-19T03:52:29;94365.97;;;7.22;53.46
4469;BME280;2247;42.666;23.292;2023-11-19T03:54:56;94349.38;;;7.11;53.94
4469;BME280;2247;42.666;23.292;2023-11-19T03:57:23;94360.38;;;7.13;53.41
4469;BME280;2247;42.666;23.292;2023-11-19T03:59:50;94365.38;;;7.15;53.64
4469;BME280;2247;42.666;23.292;2023-11-19T04:02:17;94355.69;;;7.16;53.56
4469;BME280;2247;42.666;23.292;2023-11-19T04:04:44;94375.59;;;7.17;53.62
4469;BME280;2247;42.666;23.292;2023-11-19T04:07:11;94372.19;;;7.16;53.70
4469;BME280;2247;42.666;23.292;2023-11-19T04:09:39;94387.38;;;7.14;53.83
4469;BME280;2247;42.666;23.292;2023-11-19T04:12:07;94389.19;;;7.13;53.74
4469;BME280;2247;42.666;23.292;2023-11-19T04:14:33;94397.84;;;7.14;53.84
4469;BME280;2247;42.666;23.292;2023-11-19T04:17:00;94404.13;;;7.13;54.03
4469;BME280;2247;42.666;23.292;2023-11-19T04:19:27;94396.53;;;7.11;53.81
4469;BME280;2247;42.666;23.292;2023-11-19T04:21:54;94412.72;;;7.08;54.12
4469;BME280;2247;42.666;23.292;2023-11-19T04:24:21;94398.28;;;7.06;54.08
4469;BME280;2247;42.666;23.292;2023-11-19T04:26:49;94402.75;;;7.05;54.21
4469;BME280;2247;42.666;23.292;2023-11-19T04:29:17;94385.47;;;7.04;53.95
4469;BME280;2247;42.666;23.292;2023-11-19T04:31:45;94404.72;;;7.20;53.47
4469;BME280;2247;42.666;23.292;2023-11-19T04:34:12;94407.59;;;7.19;53.20
4469;BME280;2247;42.666;23.292;2023-11-19T04:36:39;94415.50;;;7.24;53.29
4469;BME280;2247;42.666;23.292;2023-11-19T04:39:06;94421.81;;;7.28;53.17
4469;BME280;2247;42.666;23.292;2023-11-19T04:41:45;94420.53;;;7.30;53.00
4469;BME280;2247;42.666;23.292;2023-11-19T04:44:14;94415.28;;;7.30;53.05
4469;BME280;2247;42.666;23.292;2023-11-19T04:46:41;94416.13;;;7.36;52.77
4469;BME280;2247;42.666;23.292;2023-11-19T04:49:09;94420.53;;;7.30;52.54
4469;BME280;2247;42.666;23.292;2023-11-19T04:51:38;94420.78;;;7.29;52.49
4469;BME280;2247;42.666;23.292;2023-11-19T04:54:06;94422.25;;;7.20;52.82
4469;BME280;2247;42.666;23.292;2023-11-19T04:56:34;94427.00;;;7.23;52.96
4469;BME280;2247;42.666;23.292;2023-11-19T04:59:00;94420.19;;;7.22;52.96
4469;BME280;2247;42.666;23.292;2023-11-19T05:32:32;94434.97;;;7.06;52.61
4469;BME280;2247;42.666;23.292;2023-11-19T06:11:43;94453.56;;;7.04;52.25
4469;BME280;2247;42.666;23.292;2023-11-19T06:24:33;94470.94;;;7.42;52.49
4469;BME280;2247;42.666;23.292;2023-11-19T06:40:26;94481.19;;;7.44;52.33
4469;BME280;2247;42.666;23.292;2023-11-19T06:42:53;94481.16;;;7.39;52.04
4469;BME280;2247;42.666;23.292;2023-11-19T06:45:21;94452.78;;;7.04;52.22
4469;BME280;2247;42.666;23.292;2023-11-19T06:47:48;94482.41;;;7.31;52.76
4469;BME280;2247;42.666;23.292;2023-11-19T06:50:15;94451.84;;;7.15;52.50
4469;BME280;2247;42.666;23.292;2023-11-19T06:52:44;94470.81;;;7.27;52.24
4469;BME280;2247;42.666;23.292;2023-11-19T06:55:12;94456.91;;;7.27;52.22
4469;BME280;2247;42.666;23.292;2023-11-19T06:57:40;94471.75;;;7.16;52.05
4469;BME280;2247;42.666;23.292;2023-11-19T07:00:07;94470.16;;;7.15;51.78
4469;BME280;2247;42.666;23.292;2023-11-19T07:02:34;94467.91;;;7.24;51.67
4469;BME280;2247;42.666;23.292;2023-11-19T07:05:02;94474.63;;;7.15;51.94
4469;BME280;2247;42.666;23.292;2023-11-19T07:07:30;94492.91;;;7.36;52.87
4469;BME280;2247;42.666;23.292;2023-11-19T07:09:57;94490.66;;;7.45;53.48
4469;BME280;2247;42.666;23.292;2023-11-19T07:12:24;94485.09;;;7.41;52.64
4469;BME280;2247;42.666;23.292;2023-11-19T07:14:53;94494.13;;;7.56;52.02
4469;BME280;2247;42.666;23.292;2023-11-19T07:17:21;94482.63;;;7.57;50.86
4469;BME280;2247;42.666;23.292;2023-11-19T07:19:49;94487.28;;;7.49;51.35
4469;BME280;2247;42.666;23.292;2023-11-19T07:22:16;94482.47;;;7.41;51.19
4469;BME280;2247;42.666;23.292;2023-11-19T07:24:44;94508.63;;;7.63;51.21
4469;BME280;2247;42.666;23.292;2023-11-19T07:27:11;94474.91;;;7.45;52.42
4469;BME280;2247;42.666;23.292;2023-11-19T07:29:39;94505.22;;;7.63;53.49
4469;BME280;2247;42.666;23.292;2023-11-19T07:32:08;94501.69;;;7.79;53.14
4469;BME280;2247;42.666;23.292;2023-11-19T07:34:36;94515.28;;;7.76;51.71
4469;BME280;2247;42.666;23.292;2023-11-19T07:37:04;94507.41;;;7.76;52.83
4469;BME280;2247;42.666;23.292;2023-11-19T07:39:31;94507.41;;;7.76;52.13
4469;BME280;2247;42.666;23.292;2023-11-19T07:41:59;94523.03;;;7.93;51.21
4469;BME280;2247;42.666;23.292;2023-11-19T07:44:28;94527.78;;;7.96;52.11
4469;BME280;2247;42.666;23.292;2023-11-19T07:46:57;94537.50;;;7.95;49.71
4469;BME280;2247;42.666;23.292;2023-11-19T07:49:27;94520.31;;;7.82;50.89
4469;BME280;2247;42.666;23.292;2023-11-19T07:51:54;94502.69;;;7.73;51.38
4469;BME280;2247;42.666;23.292;2023-11-19T07:54:21;94535.28;;;7.82;51.58
4469;BME280;2247;42.666;23.292;2023-11-19T07:56:48;94524.16;;;7.70;52.22
4469;BME280;2247;42.666;23.292;2023-11-19T07:59:16;94531.09;;;7.81;50.52
4469;BME280;2247;42.666;23.292;2023-11-19T08:01:42;94518.56;;;7.88;51.34
4469;BME280;2247;42.666;23.292;2023-11-19T08:04:10;94515.50;;;7.69;50.14
4469;BME280;2247;42.666;23.292;2023-11-19T08:06:39;94546.53;;;7.77;49.72
4469;BME280;2247;42.666;23.292;2023-11-19T08:09:06;94544.25;;;7.86;49.66
4469;BME280;2247;42.666;23.292;2023-11-19T08:11:39;94537.84;;;7.77;49.22
4469;BME280;2247;42.666;23.292;2023-11-19T08:14:07;94508.84;;;7.57;49.29
4469;BME280;2247;42.666;23.292;2023-11-19T08:16:35;94533.84;;;7.69;49.25
4469;BME280;2247;42.666;23.292;2023-11-19T08:19:03;94548.59;;;7.75;49.40
4469;BME280;2247;42.666;23.292;2023-11-19T08:21:31;94509.84;;;7.50;49.58
4469;BME280;2247;42.666;23.292;2023-11-19T08:23:59;94527.00;;;7.63;49.43
4469;BME280;2247;42.666;23.292;2023-11-19T08:26:28;94529.41;;;7.70;49.36
4469;BME280;2247;42.666;23.292;2023-11-19T08:28:56;94568.28;;;7.78;49.25
4469;BME280;2247;42.666;23.292;2023-11-19T08:31:25;94539.91;;;7.70;49.36
4469;BME280;2247;42.666;23.292;2023-11-19T08:33:56;94532.34;;;7.73;49.50
4469;BME280;2247;42.666;23.292;2023-11-19T08:36:25;94509.63;;;7.57;49.41
4469;BME280;2247;42.666;23.292;2023-11-19T08:39:08;94539.34;;;7.68;49.34
4469;BME280;2247;42.666;23.292;2023-11-19T08:41:35;94544.06;;;7.66;49.63
4469;BME280;2247;42.666;23.292;2023-11-19T08:44:04;94568.94;;;7.90;48.88
4469;BME280;2247;42.666;23.292;2023-11-19T08:46:31;94569.38;;;7.82;49.01
4469;BME280;2247;42.666;23.292;2023-11-19T08:48:58;94556.94;;;7.67;48.95
4469;BME280;2247;42.666;23.292;2023-11-19T08:51:25;94561.38;;;7.67;49.16
4469;BME280;2247;42.666;23.292;2023-11-19T08:53:53;94556.41;;;7.70;48.91
4469;BME280;2247;42.666;23.292;2023-11-19T08:56:22;94566.91;;;7.70;49.11
4469;BME280;2247;42.666;23.292;2023-11-19T08:58:49;94555.78;;;7.58;49.13
4469;BME280;2247;42.666;23.292;2023-11-19T09:01:16;94565.63;;;7.73;48.93
4469;BME280;2247;42.666;23.292;2023-11-19T09:03:43;94550.13;;;7.71;48.82
4469;BME280;2247;42.666;23.292;2023-11-19T09:06:10;94556.19;;;7.72;48.82
4469;BME280;2247;42.666;23.292;2023-11-19T09:08:37;94553.03;;;7.75;49.02
4469;BME280;2247;42.666;23.292;2023-11-19T09:11:07;94536.53;;;7.74;49.05
4469;BME280;2247;42.666;23.292;2023-11-19T09:13:36;94539.47;;;7.83;48.83
4469;BME280;2247;42.666;23.292;2023-11-19T09:16:03;94530.69;;;7.94;48.52
4469;BME280;2247;42.666;23.292;2023-11-19T09:18:31;94513.31;;;7.88;48.65
4469;BME280;2247;42.666;23.292;2023-11-19T09:20:58;94542.38;;;8.13;49.11
4469;BME280;2247;42.666;23.292;2023-11-19T09:23:25;94539.78;;;8.23;49.40
4469;BME280;2247;42.666;23.292;2023-11-19T09:25:53;94546.44;;;8.31;48.64
4469;BME280;2247;42.666;23.292;2023-11-19T09:28:21;94561.41;;;8.30;48.52
4469;BME280;2247;42.666;23.292;2023-11-19T09:30:49;94550.50;;;8.17;48.55
4469;BME280;2247;42.666;23.292;2023-11-19T09:33:16;94541.38;;;8.24;47.26
4469;BME280;2247;42.666;23.292;2023-11-19T09:35:43;94539.53;;;8.20;47.65
4469;BME280;2247;42.666;23.292;2023-11-19T09:38:10;94528.47;;;8.18;47.92
4469;BME280;2247;42.666;23.292;2023-11-19T09:40:38;94491.31;;;7.94;47.90
4469;BME280;2247;42.666;23.292;2023-11-19T09:43:05;94497.75;;;8.13;48.12
4469;BME280;2247;42.666;23.292;2023-11-19T09:45:45;94489.31;;;8.06;48.19
4469;BME280;2247;42.666;23.292;2023-11-19T09:48:17;94454.38;;;8.01;47.92
4469;BME280;2247;42.666;23.292;2023-11-19T09:50:45;94496.25;;;8.22;48.26
4469;BME280;2247;42.666;23.292;2023-11-19T09:53:14;94443.09;;;8.05;48.33
4469;BME280;2247;42.666;23.292;2023-11-19T09:55:43;94476.34;;;8.32;48.66
4469;BME280;2247;42.666;23.292;2023-11-19T09:58:12;94480.69;;;8.53;48.48
4469;BME280;2247;42.666;23.292;2023-11-19T10:00:41;94486.25;;;8.66;47.62
4469;BME280;2247;42.666;23.292;2023-11-19T10:03:09;94486.47;;;8.50;47.76
4469;BME280;2247;42.666;23.292;2023-11-19T10:05:39;94478.81;;;8.48;48.41
4469;BME280;2247;42.666;23.292;2023-11-19T10:08:06;94450.16;;;8.37;48.03
4469;BME280;2247;42.666;23.292;2023-11-19T10:10:33;94484.41;;;8.62;47.92
4469;BME280;2247;42.666;23.292;2023-11-19T10:13:00;94455.53;;;8.67;47.11
4469;BME280;2247;42.666;23.292;2023-11-19T10:15:27;94476.06;;;8.80;46.91
4469;BME280;2247;42.666;23.292;2023-11-19T10:17:55;94475.75;;;8.66;47.46
4469;BME280;2247;42.666;23.292;2023-11-19T10:20:22;94489.19;;;8.70;46.61
4469;BME280;2247;42.666;23.292;2023-11-19T10:22:54;94496.50;;;8.63;46.58
4469;BME280;2247;42.666;23.292;2023-11-19T10:25:22;94490.72;;;8.66;46.64
4469;BME280;2247;42.666;23.292;2023-11-19T10:27:50;94493.09;;;8.67;46.63
4469;BME280;2247;42.666;23.292;2023-11-19T10:30:18;94474.22;;;8.71;46.77
4469;BME280;2247;42.666;23.292;2023-11-19T10:32:45;94466.59;;;8.74;46.58
4469;BME280;2247;42.666;23.292;2023-11-19T10:35:12;94473.97;;;8.77;46.89
4469;BME280;2247;42.666;23.292;2023-11-19T10:37:41;94447.41;;;8.79;46.74
4469;BME280;2247;42.666;23.292;2023-11-19T10:40:10;94468.00;;;9.07;46.26
4469;BME280;2247;42.666;23.292;2023-11-19T10:42:40;94459.06;;;8.98;46.13
4469;BME280;2247;42.666;23.292;2023-11-19T10:45:21;94490.06;;;9.06;45.56
4469;BME280;2247;42.666;23.292;2023-11-19T10:50:24;94449.56;;;8.87;45.83
4469;BME280;2247;42.666;23.292;2023-11-19T10:52:56;94481.13;;;8.92;45.63
4469;BME280;2247;42.666;23.292;2023-11-19T10:58:03;94443.50;;;8.76;45.71
4469;BME280;2247;42.666;23.292;2023-11-19T11:00:35;94456.13;;;8.84;45.75
4469;BME280;2247;42.666;23.292;2023-11-19T11:03:09;94437.44;;;8.76;45.44
4469;BME280;2247;42.666;23.292;2023-11-19T11:05:37;94457.78;;;9.05;45.51
4469;BME280;2247;42.666;23.292;2023-11-19T11:08:06;94439.91;;;9.18;45.57
4469;BME280;2247;42.666;23.292;2023-11-19T11:10:38;94427.03;;;9.21;45.35
4469;BME280;2247;42.666;23.292;2023-11-19T11:13:07;94422.81;;;9.15;45.22
4469;BME280;2247;42.666;23.292;2023-11-19T11:15:35;94414.16;;;9.15;44.97
4469;BME280;2247;42.666;23.292;2023-11-19T11:18:03;94416.78;;;9.09;45.35
4469;BME280;2247;42.666;23.292;2023-11-19T11:20:30;94411.22;;;9.06;45.70
4469;BME280;2247;42.666;23.292;2023-11-19T11:23:13;94421.50;;;9.07;46.09
4469;BME280;2247;42.666;23.292;2023-11-19T11:25:49;94415.69;;;9.00;45.45
4469;BME280;2247;42.666;23.292;2023-11-19T11:28:27;94424.38;;;9.01;45.62
4469;BME280;2247;42.666;23.292;2023-11-19T11:31:10;94427.25;;;8.99;45.80
4469;BME280;2247;42.666;23.292;2023-11-19T11:34:14;94426.75;;;9.02;45.63
4469;BME280;2247;42.666;23.292;2023-11-19T11:36:53;94427.25;;;8.99;45.41
4469;BME280;2247;42.666;23.292;2023-11-19T11:39:22;94409.13;;;8.98;45.55
4469;BME280;2247;42.666;23.292;2023-11-19T11:45:04;94392.84;;;9.01;45.61
4469;BME280;2247;42.666;23.292;2023-11-19T11:48:10;94374.72;;;9.09;45.58
4469;BME280;2247;42.666;23.292;2023-11-19T11:50:55;94388.38;;;9.06;45.18
4469;BME280;2247;42.666;23.292;2023-11-19T11:53:30;94373.66;;;9.05;45.63
4469;BME280;2247;42.666;23.292;2023-11-19T11:56:00;94378.66;;;9.12;45.74
4469;BME280;2247;42.666;23.292;2023-11-19T11:58:36;94391.53;;;9.08;45.21
4469;BME280;2247;42.666;23.292;2023-11-19T12:01:06;94403.34;;;9.06;45.42
4469;BME280;2247;42.666;23.292;2023-11-19T12:03:33;94379.41;;;8.92;45.84
4469;BME280;2247;42.666;23.292;2023-11-19T12:06:00;94384.66;;;8.92;45.27
4469;BME280;2247;42.666;23.292;2023-11-19T12:08:29;94364.44;;;8.88;45.18
4469;BME280;2247;42.666;23.292;2023-11-19T12:10:57;94379.69;;;9.06;44.98
4469;BME280;2247;42.666;23.292;2023-11-19T12:13:44;94378.66;;;9.07;45.00
4469;BME280;2247;42.666;23.292;2023-11-19T12:16:14;94382.09;;;9.13;45.02
4469;BME280;2247;42.666;23.292;2023-11-19T12:18:41;94374.72;;;9.20;45.14
4469;BME280;2247;42.666;23.292;2023-11-19T12:21:08;94358.69;;;9.11;44.93
4469;BME280;2247;42.666;23.292;2023-11-19T12:23:44;94359.72;;;9.20;44.71
4469;BME280;2247;42.666;23.292;2023-11-19T12:26:38;94354.22;;;9.17;44.94
4469;BME280;2247;42.666;23.292;2023-11-19T12:29:06;94340.00;;;9.07;44.94
4469;BME280;2247;42.666;23.292;2023-11-19T12:31:35;94355.25;;;9.21;44.98
4469;BME280;2247;42.666;23.292;2023-11-19T12:34:10;94350.28;;;9.24;44.57
4469;BME280;2247;42.666;23.292;2023-11-19T12:36:39;94345.28;;;9.23;44.69
4469;BME280;2247;42.666;23.292;2023-11-19T12:39:07;94340.03;;;9.33;44.36
4469;BME280;2247;42.666;23.292;2023-11-19T12:41:51;94325.84;;;9.24;44.51
4469;BME280;2247;42.666;23.292;2023-11-19T12:44:18;94327.41;;;9.25;44.54
4469;BME280;2247;42.666;23.292;2023-11-19T12:46:59;94338.97;;;9.34;44.89
4469;BME280;2247;42.666;23.292;2023-11-19T12:49:27;94341.31;;;9.40;44.97
4469;BME280;2247;42.666;23.292;2023-11-19T12:51:54;94326.88;;;9.43;44.67
4469;BME280;2247;42.666;23.292;2023-11-19T12:54:33;94336.84;;;9.56;44.97
4469;BME280;2247;42.666;23.292;2023-11-19T12:57:04;94335.25;;;9.55;45.14
4469;BME280;2247;42.666;23.292;2023-11-19T12:59:31;94332.09;;;9.63;44.78
4469;BME280;2247;42.666;23.292;2023-11-19T13:02:02;94328.41;;;9.64;44.96
4469;BME280;2247;42.666;23.292;2023-11-19T13:04:31;94322.63;;;9.67;44.96
4469;BME280;2247;42.666;23.292;2023-11-19T13:06:58;94336.31;;;9.74;45.40
4469;BME280;2247;42.666;23.292;2023-11-19T13:09:26;94329.97;;;9.75;45.66
4469;BME280;2247;42.666;23.292;2023-11-19T13:11:55;94316.81;;;9.70;45.93
4469;BME280;2247;42.666;23.292;2023-11-19T13:14:23;94326.56;;;9.75;46.18
4469;BME280;2247;42.666;23.292;2023-11-19T13:17:06;94326.03;;;9.73;46.00
4469;BME280;2247;42.666;23.292;2023-11-19T13:19:32;94327.88;;;9.72;45.34
4469;BME280;2247;42.666;23.292;2023-11-19T13:22:00;94318.41;;;9.81;45.46
4469;BME280;2247;42.666;23.292;2023-11-19T13:24:27;94327.06;;;9.87;45.46
4469;BME280;2247;42.666;23.292;2023-11-19T13:26:57;94314.94;;;9.86;46.15
4469;BME280;2247;42.666;23.292;2023-11-19T13:29:24;94299.44;;;9.84;43.75
4469;BME280;2247;42.666;23.292;2023-11-19T13:31:52;94300.50;;;9.78;43.27
4469;BME280;2247;42.666;23.292;2023-11-19T13:34:22;94301.81;;;9.81;42.85
4469;BME280;2247;42.666;23.292;2023-11-19T13:36:49;94313.13;;;9.81;42.23
4469;BME280;2247;42.666;23.292;2023-11-19T13:39:16;94305.78;;;9.68;43.21
4469;BME280;2247;42.666;23.292;2023-11-19T13:41:48;94300.75;;;9.82;43.31
4469;BME280;2247;42.666;23.292;2023-11-19T13:44:16;94312.31;;;9.86;42.21
4469;BME280;2247;42.666;23.292;2023-11-19T13:46:44;94316.75;;;10.01;43.34
4469;BME280;2247;42.666;23.292;2023-11-19T13:49:11;94324.06;;;10.14;44.57
4469;BME280;2247;42.666;23.292;2023-11-19T13:51:40;94323.56;;;10.17;41.38
4469;BME280;2247;42.666;23.292;2023-11-19T13:54:06;94326.75;;;10.09;40.75
4469;BME280;2247;42.666;23.292;2023-11-19T13:56:33;94297.81;;;9.94;40.45
4469;BME280;2247;42.666;23.292;2023-11-19T13:59:01;94325.66;;;10.15;40.83
4469;BME280;2247;42.666;23.292;2023-11-19T14:01:28;94319.59;;;10.14;40.98
4469;BME280;2247;42.666;23.292;2023-11-19T14:03:55;94323.56;;;10.22;42.98
4469;BME280;2247;42.666;23.292;2023-11-19T14:06:21;94320.91;;;10.22;41.48
4469;BME280;2247;42.666;23.292;2023-11-19T14:08:57;94340.41;;;10.16;40.95
4469;BME280;2247;42.666;23.292;2023-11-19T14:11:27;94309.13;;;9.99;41.23
4469;BME280;2247;42.666;23.292;2023-11-19T14:13:54;94313.56;;;10.04;41.10
4469;BME280;2247;42.666;23.292;2023-11-19T14:16:21;94335.13;;;10.11;41.44
4469;BME280;2247;42.666;23.292;2023-11-19T14:18:49;94343.28;;;10.14;42.57
4469;BME280;2247;42.666;23.292;2023-11-19T14:21:16;94354.06;;;10.28;45.27
4469;BME280;2247;42.666;23.292;2023-11-19T14:23:53;94335.63;;;10.28;46.20
4469;BME280;2247;42.666;23.292;2023-11-19T14:26:28;94363.47;;;10.44;44.04
4469;BME280;2247;42.666;23.292;2023-11-19T14:28:58;94361.34;;;10.56;44.29
4469;BME280;2247;42.666;23.292;2023-11-19T14:31:27;94353.91;;;10.63;44.51
4469;BME280;2247;42.666;23.292;2023-11-19T14:33:54;94326.88;;;10.43;42.36
4469;BME280;2247;42.666;23.292;2023-11-19T14:36:22;94330.56;;;10.42;43.68
4469;BME280;2247;42.666;23.292;2023-11-19T14:38:50;94329.22;;;10.49;43.51
4469;BME280;2247;42.666;23.292;2023-11-19T14:43:54;94339.75;;;10.49;43.10
4469;BME280;2247;42.666;23.292;2023-11-19T14:46:21;94332.38;;;10.46;44.48
4469;BME280;2247;42.666;23.292;2023-11-19T14:48:50;94327.41;;;10.40;43.87
4469;BME280;2247;42.666;23.292;2023-11-19T14:51:17;94352.94;;;10.44;44.54
4469;BME280;2247;42.666;23.292;2023-11-19T14:53:44;94323.03;;;10.20;46.06
4469;BME280;2247;42.666;23.292;2023-11-19T14:56:11;94359.81;;;10.40;46.05
4469;BME280;2247;42.666;23.292;2023-11-19T14:58:39;94357.75;;;10.27;45.83
4469;BME280;2247;42.666;23.292;2023-11-19T15:01:11;94348.84;;;10.23;45.83
4469;BME280;2247;42.666;23.292;2023-11-19T15:03:40;94311.50;;;9.91;46.34
4469;BME280;2247;42.666;23.292;2023-11-19T15:06:07;94357.03;;;9.96;46.09
4469;BME280;2247;42.666;23.292;2023-11-19T15:08:36;94358.13;;;9.80;46.32
4469;BME280;2247;42.666;23.292;2023-11-19T15:11:04;94355.50;;;9.70;46.20